createdAt,value
2023-04-02T00:02:26.033Z,98902.44
2023-04-02T00:05:21.226Z,98901.46
2023-04-02T00:07:57.648Z,98910.36
2023-04-02T00:09:23.204Z,98917.70
2023-04-02T00:11:56.965Z,98898.08
2023-04-02T00:14:35.747Z,98906.39
2023-04-02T00:17:06.277Z,98905.27
2023-04-02T00:19:56.229Z,98907.81
2023-04-02T00:22:33.142Z,98903.56
2023-04-02T00:25:02.282Z,98910.50
2023-04-02T00:27:44.748Z,98902.89
2023-04-02T00:31:52.289Z,98908.95
2023-04-02T00:35:43.401Z,98906.02
2023-04-02T00:39:39.109Z,98909.83
2023-04-02T00:42:07.346Z,98911.53
2023-04-02T00:44:37.269Z,98911.95
2023-04-02T00:45:51.322Z,98908.41
2023-04-02T00:47:05.556Z,98913.78
2023-04-02T00:49:42.211Z,98908.86
2023-04-02T00:50:54.075Z,98910.80
2023-04-02T00:53:27.537Z,98907.02
2023-04-02T00:57:37.574Z,98907.02
2023-04-02T01:00:22.114Z,98908.72
2023-04-02T01:04:36.189Z,98914.49
2023-04-02T01:07:10.134Z,98915.91
2023-04-02T01:10:04.374Z,98918.89
2023-04-02T01:13:06.017Z,98916.36
2023-04-02T01:16:18.559Z,98911.56
2023-04-02T01:17:50.830Z,98927.82
2023-04-02T01:20:48.155Z,98917.19
2023-04-02T01:23:22.578Z,98911.28
2023-04-02T01:26:11.833Z,98923.59
2023-04-02T01:30:18.729Z,98926.97
2023-04-02T01:32:46.104Z,98928.53
2023-04-02T01:35:11.743Z,98935.03
2023-04-02T01:38:10.658Z,98924.72
2023-04-02T01:42:31.891Z,98922.86
2023-04-02T01:43:55.474Z,98927.23
2023-04-02T01:46:29.920Z,98920.47
2023-04-02T01:48:57.141Z,98923.01
2023-04-02T01:50:15.399Z,98924.84
2023-04-02T01:51:33.262Z,98930.37
2023-04-02T01:54:06.236Z,98933.63
2023-04-02T01:56:37.951Z,98920.03
2023-04-02T01:59:10.520Z,98933.23
2023-04-02T02:00:23.419Z,98926.97
2023-04-02T02:01:52.553Z,98926.97
2023-04-02T02:04:19.428Z,98923.01
2023-04-02T02:06:47.212Z,98926.41
2023-04-02T02:10:42.513Z,98922.45
2023-04-02T02:13:12.328Z,98920.45
2023-04-02T02:14:27.875Z,98934.16
2023-04-02T02:16:57.193Z,98919.59
2023-04-02T02:19:35.914Z,98929.20
2023-04-02T02:23:24.145Z,98929.06
2023-04-02T02:24:36.631Z,98928.17
2023-04-02T02:25:48.072Z,98928.76
2023-04-02T02:28:33.607Z,98923.96
2023-04-02T02:31:18.274Z,98927.77
2023-04-02T02:33:53.212Z,98928.20
2023-04-02T02:36:31.146Z,98924.67
2023-04-02T02:39:39.392Z,98919.02
2023-04-02T02:42:14.366Z,98922.68
2023-04-02T02:46:03.401Z,98933.85
2023-04-02T02:47:18.970Z,98935.92
2023-04-02T02:49:55.769Z,98928.62
2023-04-02T02:52:34.588Z,98935.95
2023-04-02T02:56:36.527Z,98932.84
2023-04-02T02:59:08.571Z,98935.08
2023-04-02T03:01:38.781Z,98931.14
2023-04-02T03:02:49.721Z,98933.66
2023-04-02T03:05:21.917Z,98932.70
2023-04-02T03:06:32.262Z,98935.50
2023-04-02T03:07:41.825Z,98943.80
2023-04-02T03:11:39.752Z,98941.60
2023-04-02T03:14:16.563Z,98943.59
2023-04-02T03:16:53.853Z,98948.09
2023-04-02T03:18:13.566Z,98950.30
2023-04-02T03:21:22.242Z,98943.14
2023-04-02T03:24:06.630Z,98944.84
2023-04-02T03:26:55.892Z,98950.92
2023-04-02T03:29:33.871Z,98958.56
2023-04-02T03:33:28.441Z,98951.65
2023-04-02T03:36:38.960Z,98956.44
2023-04-02T03:37:59.743Z,98958.80
2023-04-02T03:40:56.769Z,98955.84
2023-04-02T03:43:44.225Z,98961.63
2023-04-02T03:48:01.059Z,98962.64
2023-04-02T03:50:42.802Z,98968.02
2023-04-02T03:53:29.277Z,98975.97
2023-04-02T03:54:41.305Z,98979.14
2023-04-02T03:55:54.015Z,98976.59
2023-04-02T03:57:03.511Z,98977.57
2023-04-02T03:58:26.297Z,98985.06
2023-04-02T04:01:05.325Z,98969.38
2023-04-02T04:02:36.918Z,98981.78
2023-04-02T04:05:20.440Z,98982.94
2023-04-02T04:06:33.333Z,98985.72
2023-04-02T04:07:45.182Z,98995.73
2023-04-02T04:10:23.101Z,98985.77
2023-04-02T04:12:56.999Z,98985.21
2023-04-02T04:14:27.851Z,98982.38
2023-04-02T04:17:09.113Z,98986.36
2023-04-02T04:20:02.161Z,98979.59
2023-04-02T04:22:40.767Z,98990.77
2023-04-02T04:25:29.314Z,98994.59
2023-04-02T04:28:27.374Z,98993.59
2023-04-02T04:31:40.222Z,98998.40
2023-04-02T04:34:21.111Z,98996.42
2023-04-02T04:36:55.944Z,98998.40
2023-04-02T04:39:46.673Z,99007.30
2023-04-02T04:41:04.668Z,99007.39
2023-04-02T04:43:50.757Z,99003.45
2023-04-02T04:46:37.563Z,99008.69
2023-04-02T04:49:23.449Z,99010.40
2023-04-02T04:52:00.320Z,98998.83
2023-04-02T04:54:36.843Z,99009.47
2023-04-02T04:55:50.024Z,99018.18
2023-04-02T04:58:23.468Z,99008.64
2023-04-02T05:02:30.078Z,99015.54
2023-04-02T05:05:04.522Z,99016.38
2023-04-02T05:07:52.897Z,99017.06
2023-04-02T05:12:05.522Z,99021.47
2023-04-02T05:14:44.055Z,99016.09
2023-04-02T05:17:29.464Z,99022.58
2023-04-02T05:20:15.847Z,99023.73
2023-04-02T05:21:52.245Z,99032.31
2023-04-02T05:23:08.478Z,99025.45
2023-04-02T05:26:18.497Z,99014.05
2023-04-02T05:32:22.676Z,99023.82
2023-04-02T05:33:35.264Z,99030.13
2023-04-02T05:34:49.531Z,99026.61
2023-04-02T05:36:07.872Z,99024.06
2023-04-02T05:37:22.423Z,99038.33
2023-04-02T05:39:58.134Z,99030.86
2023-04-02T05:42:38.313Z,99024.09
2023-04-02T05:43:51.674Z,99031.25
2023-04-02T05:46:54.941Z,99030.91
2023-04-02T05:51:19.641Z,99032.58
2023-04-02T05:52:32.589Z,99039.48
2023-04-02T05:55:19.457Z,99031.22
2023-04-02T05:58:13.486Z,99028.64
2023-04-02T06:00:45.571Z,99037.95
2023-04-02T06:02:31.206Z,99051.25
2023-04-02T06:05:16.456Z,99055.52
2023-04-02T06:08:01.861Z,99037.39
2023-04-02T06:11:01.336Z,99055.75
2023-04-02T06:13:45.990Z,99041.06
2023-04-02T06:16:15.543Z,99053.06
2023-04-02T06:17:32.738Z,99044.50
2023-04-02T06:20:02.670Z,99049.67
2023-04-02T06:21:16.907Z,99049.35
2023-04-02T06:24:06.746Z,99044.16
2023-04-02T06:26:42.880Z,99054.17
2023-04-02T06:29:36.076Z,99064.09
2023-04-02T06:32:03.791Z,99059.31
2023-04-02T06:33:16.251Z,99058.71
2023-04-02T06:35:46.416Z,99073.17
2023-04-02T06:37:01.158Z,99075.62
2023-04-02T06:39:39.426Z,99074.74
2023-04-02T06:43:42.427Z,99067.19
2023-04-02T06:48:01.304Z,99068.05
2023-04-02T06:52:13.489Z,99064.88
2023-04-02T06:54:42.871Z,99070.44
2023-04-02T06:57:14.762Z,99075.11
2023-04-02T06:59:41.948Z,99072.14
2023-04-02T07:02:25.150Z,99078.36
2023-04-02T07:03:37.309Z,99087.61
2023-04-02T07:04:49.157Z,99086.51
2023-04-02T07:07:16.125Z,99085.31
2023-04-02T07:09:41.860Z,99086.70
2023-04-02T07:10:52.891Z,99087.94
2023-04-02T07:12:02.513Z,99087.10
2023-04-02T07:13:22.444Z,99086.97
2023-04-02T07:14:32.802Z,99086.97
2023-04-02T07:16:57.224Z,99088.31
2023-04-02T07:19:23.624Z,99084.66
2023-04-02T07:21:56.488Z,99095.13
2023-04-02T07:24:24.953Z,99094.39
2023-04-02T07:25:34.192Z,99097.44
2023-04-02T07:26:43.734Z,99090.95
2023-04-02T07:27:54.084Z,99100.86
2023-04-02T07:29:04.099Z,99106.34
2023-04-02T07:30:13.553Z,99098.18
2023-04-02T07:31:29.394Z,99103.80
2023-04-02T07:32:38.088Z,99100.41
2023-04-02T07:35:03.366Z,99091.66
2023-04-02T07:37:31.333Z,99109.95
2023-04-02T07:39:56.117Z,99099.07
2023-04-02T07:42:22.308Z,99105.50
2023-04-02T07:44:46.691Z,99106.10
2023-04-02T07:47:11.019Z,99097.91
2023-04-02T07:49:34.706Z,99101.84
2023-04-02T07:50:44.820Z,99116.93
2023-04-02T07:51:54.889Z,99108.87
2023-04-02T07:54:20.434Z,99103.28
2023-04-02T07:56:44.220Z,99103.55
2023-04-02T07:59:11.561Z,99110.23
2023-04-02T08:01:39.370Z,99104.30
2023-04-02T08:04:07.252Z,99106.34
2023-04-02T08:06:32.619Z,99106.48
2023-04-02T08:08:58.306Z,99099.25
2023-04-02T08:11:25.561Z,99114.12
2023-04-02T08:12:35.441Z,99109.55
2023-04-02T08:13:45.446Z,99125.39
2023-04-02T08:14:55.199Z,99109.68
2023-04-02T08:17:21.748Z,99111.85
2023-04-02T08:19:54.823Z,99104.58
2023-04-02T08:22:14.770Z,99111.85
2023-04-02T08:23:24.084Z,99117.28
2023-04-02T08:24:33.371Z,99121.95
2023-04-02T08:26:59.154Z,99116.36
2023-04-02T08:28:07.943Z,99118.29
2023-04-02T08:30:32.388Z,99112.23
2023-04-02T08:31:42.313Z,99108.52
2023-04-02T08:34:08.575Z,99120.16
2023-04-02T08:36:37.528Z,99108.30
2023-04-02T08:39:05.873Z,99117.52
2023-04-02T08:41:38.248Z,99113.85
2023-04-02T08:44:18.532Z,99116.95
2023-04-02T08:47:07.156Z,99124.04
2023-04-02T08:49:48.744Z,99123.91
2023-04-02T08:52:28.926Z,99123.45
2023-04-02T08:53:42.465Z,99124.23
2023-04-02T08:57:43.870Z,99138.13
2023-04-02T09:00:42.865Z,99140.22
2023-04-02T09:03:55.883Z,99130.99
2023-04-02T09:06:27.750Z,99139.05
2023-04-02T09:08:53.948Z,99142.61
2023-04-02T09:10:04.978Z,99146.92
2023-04-02T09:12:52.973Z,99143.72
2023-04-02T09:14:06.338Z,99151.52
2023-04-02T09:16:45.673Z,99140.97
2023-04-02T09:19:21.313Z,99151.25
2023-04-02T09:23:06.391Z,99145.61
2023-04-02T09:25:32.120Z,99150.34
2023-04-02T09:27:59.332Z,99142.72
2023-04-02T09:30:48.967Z,99151.05
2023-04-02T09:33:53.478Z,99154.20
2023-04-02T09:36:38.036Z,99156.28
2023-04-02T09:39:08.117Z,99153.09
2023-04-02T09:41:48.175Z,99153.80
2023-04-02T09:44:31.616Z,99158.59
2023-04-02T09:47:09.024Z,99154.80
2023-04-02T09:49:55.027Z,99153.46
2023-04-02T09:52:32.539Z,99163.31
2023-04-02T09:55:17.243Z,99153.59
2023-04-02T09:57:44.272Z,99168.10
2023-04-02T10:00:32.491Z,99165.71
2023-04-02T10:03:29.382Z,99169.84
2023-04-02T10:06:12.485Z,99164.09
2023-04-02T10:07:43.910Z,99163.16
2023-04-02T10:08:53.441Z,99164.17
2023-04-02T10:11:46.255Z,99169.73
2023-04-02T10:14:20.938Z,99166.77
2023-04-02T10:15:40.987Z,99163.76
2023-04-02T10:18:16.580Z,99164.41
2023-04-02T10:19:38.899Z,99171.96
2023-04-02T10:22:28.673Z,99167.05
2023-04-02T10:23:38.785Z,99176.47
2023-04-02T10:24:49.058Z,99165.84
2023-04-02T10:26:07.946Z,99168.67
2023-04-02T10:27:25.523Z,99169.64
2023-04-02T10:30:19.721Z,99176.92
2023-04-02T10:33:12.349Z,99173.20
2023-04-02T10:42:00.056Z,99190.44
2023-04-02T10:44:47.439Z,99181.73
2023-04-02T10:47:32.750Z,99184.02
2023-04-02T10:50:51.249Z,99174.56
2023-04-02T10:52:05.688Z,99180.86
2023-04-02T10:56:47.984Z,99191.92
2023-04-02T10:57:48.632Z,99185.37
2023-04-02T10:59:16.688Z,99191.08
2023-04-02T11:00:30.350Z,99191.92
2023-04-02T11:01:41.705Z,99186.41
2023-04-02T11:03:11.675Z,99187.41
2023-04-02T11:05:51.054Z,99195.55
2023-04-02T11:08:29.055Z,99193.70
2023-04-02T11:11:10.272Z,99194.30
2023-04-02T11:15:21.073Z,99187.99
2023-04-02T11:17:38.371Z,99197.03
2023-04-02T11:20:59.004Z,99189.04
2023-04-02T11:24:03.652Z,99193.75
2023-04-02T11:25:28.227Z,99197.14
2023-04-02T11:28:47.590Z,99191.81
2023-04-02T11:32:28.123Z,99197.73
2023-04-02T11:36:54.978Z,99198.31
2023-04-02T11:41:10.028Z,99197.80
2023-04-02T11:43:44.049Z,99201.48
2023-04-02T11:46:21.881Z,99202.91
2023-04-02T11:48:47.328Z,99205.89
2023-04-02T11:51:27.021Z,99202.77
2023-04-02T11:53:58.035Z,99215.80
2023-04-02T11:56:44.802Z,99215.95
2023-04-02T11:59:40.821Z,99211.80
2023-04-02T12:04:36.773Z,99215.21
2023-04-02T12:05:57.593Z,99221.56
2023-04-02T12:08:57.681Z,99214.55
2023-04-02T12:11:37.243Z,99208.77
2023-04-02T12:12:46.623Z,99220.48
2023-04-02T12:15:29.643Z,99208.94
2023-04-02T12:16:39.745Z,99223.11
2023-04-02T12:17:48.732Z,99221.67
2023-04-02T12:20:24.977Z,99212.36
2023-04-02T12:21:34.859Z,99226.05
2023-04-02T12:22:50.563Z,99226.61
2023-04-02T12:26:43.359Z,99216.82
2023-04-02T12:29:36.225Z,99239.05
2023-04-02T12:32:05.479Z,99231.36
2023-04-02T12:34:34.662Z,99226.61
2023-04-02T12:37:03.825Z,99230.90
2023-04-02T12:39:56.620Z,99223.13
2023-04-02T12:42:29.836Z,99220.30
2023-04-02T12:44:55.735Z,99224.56
2023-04-02T12:46:07.428Z,99228.20
2023-04-02T12:47:18.140Z,99227.62
2023-04-02T12:48:28.170Z,99232.02
2023-04-02T12:51:00.071Z,99218.47
2023-04-02T12:52:12.008Z,99225.69
2023-04-02T12:54:54.024Z,99222.99
2023-04-02T12:57:27.760Z,99224.14
2023-04-02T13:00:07.088Z,99228.94
2023-04-02T13:01:24.144Z,99236.42
2023-04-02T13:04:03.778Z,99227.39
2023-04-02T13:06:32.580Z,99222.87
2023-04-02T13:09:02.018Z,99227.92
2023-04-02T13:11:42.116Z,99225.98
2023-04-02T13:14:19.716Z,99221.22
2023-04-02T13:17:59.716Z,99228.12
2023-04-02T13:21:30.005Z,99227.80
2023-04-02T13:24:48.365Z,99225.23
2023-04-02T13:32:21.588Z,99216.46
2023-04-02T13:34:47.972Z,99228.12
2023-04-02T13:37:31.160Z,99214.22
2023-04-02T13:40:04.611Z,99213.67
2023-04-02T13:42:38.125Z,99218.59
2023-04-02T13:45:02.680Z,99228.72
2023-04-02T13:47:34.836Z,99216.85
2023-04-02T13:49:58.500Z,99228.17
2023-04-02T13:52:26.426Z,99218.89
2023-04-02T13:53:37.273Z,99224.92
2023-04-02T13:56:07.835Z,99227.92
2023-04-02T13:58:33.142Z,99214.99
2023-04-02T14:00:58.692Z,99222.45
2023-04-02T14:03:32.176Z,99213.95
2023-04-02T14:06:12.762Z,99221.36
2023-04-02T14:09:06.513Z,99228.70
2023-04-02T14:11:43.108Z,99219.34
2023-04-02T14:13:06.068Z,99228.48
2023-04-02T14:14:33.295Z,99226.35
2023-04-02T14:17:32.498Z,99219.27
2023-04-02T14:20:19.111Z,99231.08
2023-04-02T14:23:02.057Z,99233.45
2023-04-02T14:24:23.747Z,99229.29
2023-04-02T14:25:43.112Z,99228.53
2023-04-02T14:29:09.587Z,99223.61
2023-04-02T14:31:59.321Z,99229.70
2023-04-02T14:37:02.393Z,99231.63
2023-04-02T14:38:20.517Z,99240.86
2023-04-02T14:41:21.587Z,99235.21
2023-04-02T14:44:21.003Z,99239.89
2023-04-02T14:47:04.283Z,99240.59
2023-04-02T14:49:54.818Z,99241.10
2023-04-02T14:51:43.986Z,99234.65
2023-04-02T14:52:58.125Z,99246.56
2023-04-02T14:55:46.554Z,99240.64
2023-04-02T14:58:39.393Z,99228.81
2023-04-02T15:05:48.448Z,99235.58
2023-04-02T15:10:00.918Z,99244.06
2023-04-02T15:12:45.552Z,99238.73
2023-04-02T15:15:36.860Z,99240.40
2023-04-02T15:17:54.005Z,99239.43
2023-04-02T15:20:21.614Z,99249.83
2023-04-02T15:23:28.646Z,99252.89
2023-04-02T15:26:27.277Z,99249.67
2023-04-02T15:27:56.709Z,99250.61
2023-04-02T15:29:27.878Z,99259.00
2023-04-02T15:32:31.826Z,99260.75
2023-04-02T15:33:44.055Z,99257.95
2023-04-02T15:35:11.652Z,99256.54
2023-04-02T15:36:36.741Z,99254.05
2023-04-02T15:39:33.004Z,99254.03
2023-04-02T15:42:32.107Z,99252.73
2023-04-02T15:45:13.666Z,99256.08
2023-04-02T15:46:26.203Z,99257.05
2023-04-02T15:49:30.660Z,99254.09
2023-04-02T15:52:17.513Z,99254.14
2023-04-02T15:55:22.114Z,99253.34
2023-04-02T15:56:45.005Z,99257.29
2023-04-02T15:58:15.461Z,99262.71
2023-04-02T16:00:50.568Z,99257.98
2023-04-02T16:03:50.952Z,99263.91
2023-04-02T16:05:04.960Z,99262.85
2023-04-02T16:08:09.960Z,99258.50
2023-04-02T16:10:43.382Z,99265.56
2023-04-02T16:13:27.731Z,99274.03
2023-04-02T16:14:38.863Z,99256.73
2023-04-02T16:16:14.328Z,99268.33
2023-04-02T16:19:16.676Z,99270.91
2023-04-02T16:20:29.027Z,99273.50
2023-04-02T16:21:41.661Z,99270.74
2023-04-02T16:24:27.870Z,99266.67
2023-04-02T16:27:34.508Z,99268.92
2023-04-02T16:29:03.610Z,99273.20
2023-04-02T16:31:59.788Z,99274.57
2023-04-02T16:35:41.012Z,99280.22
2023-04-02T16:36:43.012Z,99273.15
2023-04-02T16:39:41.154Z,99277.89
2023-04-02T16:42:34.225Z,99285.42
2023-04-02T16:45:37.901Z,99290.16
2023-04-02T16:46:53.947Z,99293.53
2023-04-02T16:49:49.561Z,99282.77
2023-04-02T16:52:36.931Z,99294.50
2023-04-02T16:54:07.569Z,99290.72
2023-04-02T16:55:24.596Z,99297.23
2023-04-02T16:59:34.126Z,99304.45
2023-04-02T17:02:35.766Z,99296.20
2023-04-02T17:05:32.586Z,99309.88
2023-04-02T17:08:19.580Z,99306.95
2023-04-02T17:09:43.959Z,99311.44
2023-04-02T17:12:21.257Z,99316.46
2023-04-02T17:18:00.101Z,99319.02
2023-04-02T17:20:31.063Z,99316.52
2023-04-02T17:21:47.622Z,99322.61
2023-04-02T17:24:19.478Z,99321.14
2023-04-02T17:25:31.817Z,99329.77
2023-04-02T17:28:00.692Z,99323.22
2023-04-02T17:30:35.776Z,99322.67
2023-04-02T17:33:04.076Z,99323.91
2023-04-02T17:34:13.983Z,99336.45
2023-04-02T17:37:14.463Z,99328.02
2023-04-02T17:38:41.828Z,99332.44
2023-04-02T17:41:50.531Z,99336.95
2023-04-02T17:44:59.763Z,99330.72
2023-04-02T17:47:56.775Z,99335.28
2023-04-02T17:50:48.648Z,99334.80
2023-04-02T17:53:59.670Z,99340.98
2023-04-02T17:57:09.515Z,99335.83
2023-04-02T18:00:17.716Z,99339.16
2023-04-02T18:02:55.157Z,99335.33
2023-04-02T18:04:16.013Z,99338.86
2023-04-02T18:07:06.373Z,99332.81
2023-04-02T18:08:37.615Z,99337.30
2023-04-02T18:09:59.636Z,99341.70
2023-04-02T18:12:41.164Z,99334.39
2023-04-02T18:14:02.056Z,99339.39
2023-04-02T18:16:58.261Z,99340.48
2023-04-02T18:18:17.500Z,99344.87
2023-04-02T18:20:56.446Z,99335.36
2023-04-02T18:23:56.158Z,99338.30
2023-04-02T18:25:09.595Z,99342.92
2023-04-02T18:29:25.782Z,99338.52
2023-04-02T18:32:12.353Z,99341.51
2023-04-02T18:35:00.132Z,99343.53
2023-04-02T18:38:20.429Z,99339.28
2023-04-02T18:41:08.857Z,99341.59
2023-04-02T18:42:31.323Z,99346.88
2023-04-02T18:45:45.628Z,99350.34
2023-04-02T18:48:24.675Z,99334.99
2023-04-02T18:51:00.349Z,99344.16
2023-04-02T18:53:30.957Z,99339.48
2023-04-02T18:54:44.014Z,99338.16
2023-04-02T18:56:06.722Z,99343.65
2023-04-02T18:58:51.530Z,99338.16
2023-04-02T19:01:32.868Z,99339.39
2023-04-02T19:04:11.573Z,99334.99
2023-04-02T19:05:36.932Z,99347.99
2023-04-02T19:06:59.280Z,99341.52
2023-04-02T19:09:40.112Z,99339.98
2023-04-02T19:12:18.679Z,99344.31
2023-04-02T19:13:28.101Z,99342.48
2023-04-02T19:14:38.635Z,99346.78
2023-04-02T19:16:08.616Z,99348.29
2023-04-02T19:20:29.524Z,99336.59
2023-04-02T19:25:14.359Z,99344.38
2023-04-02T19:26:28.732Z,99344.88
2023-04-02T19:27:54.820Z,99346.97
2023-04-02T19:29:25.028Z,99351.20
2023-04-02T19:30:56.131Z,99352.43
2023-04-02T19:32:17.542Z,99348.53
2023-04-02T19:35:30.026Z,99348.53
2023-04-02T19:40:01.338Z,99351.36
2023-04-02T19:41:29.098Z,99352.54
2023-04-02T19:44:03.386Z,99357.33
2023-04-02T19:46:38.727Z,99352.23
2023-04-02T19:49:20.358Z,99362.86
2023-04-02T19:50:30.160Z,99354.28
2023-04-02T19:51:38.830Z,99353.32
2023-04-02T19:54:03.062Z,99349.69
2023-04-02T19:55:12.171Z,99361.70
2023-04-02T19:56:23.374Z,99353.17
2023-04-02T19:58:48.864Z,99362.06
2023-04-02T20:01:12.918Z,99360.31
2023-04-02T20:02:22.348Z,99359.64
2023-04-02T20:03:33.213Z,99365.35
2023-04-02T20:05:59.135Z,99351.44
2023-04-02T20:07:07.930Z,99350.27
2023-04-02T20:08:17.013Z,99355.09
2023-04-02T20:09:25.866Z,99350.81
2023-04-02T20:10:35.046Z,99353.49
2023-04-02T20:12:59.110Z,99356.75
2023-04-02T20:15:22.708Z,99350.99
2023-04-02T20:17:49.821Z,99351.19
2023-04-02T20:20:20.419Z,99348.53
2023-04-02T20:21:32.035Z,99358.38
2023-04-02T20:22:40.643Z,99360.43
2023-04-02T20:25:09.284Z,99351.55
2023-04-02T20:26:18.544Z,99357.08
2023-04-02T20:27:29.031Z,99359.15
2023-04-02T20:29:53.785Z,99353.67
2023-04-02T20:32:23.915Z,99346.03
2023-04-02T20:34:49.817Z,99351.23
2023-04-02T20:37:36.371Z,99351.95
2023-04-02T20:40:01.926Z,99346.99
2023-04-02T20:42:27.675Z,99351.88
2023-04-02T20:43:40.125Z,99347.83
2023-04-02T20:44:49.053Z,99359.07
2023-04-02T20:47:21.135Z,99347.20
2023-04-02T20:49:49.501Z,99344.34
2023-04-02T20:52:17.158Z,99344.87
2023-04-02T20:54:46.076Z,99342.62
2023-04-02T20:57:24.394Z,99340.07
2023-04-02T20:59:51.539Z,99353.51
2023-04-02T21:01:19.478Z,99352.27
2023-04-02T21:02:28.161Z,99360.02
2023-04-02T21:04:56.557Z,99357.50
2023-04-02T21:07:23.405Z,99354.47
2023-04-02T21:09:47.427Z,99355.27
2023-04-02T21:11:05.127Z,99351.31
2023-04-02T21:13:36.612Z,99347.54
2023-04-02T21:17:21.165Z,99346.48
2023-04-02T21:19:46.490Z,99346.00
2023-04-02T21:21:01.928Z,99350.38
2023-04-02T21:23:26.125Z,99341.14
2023-04-02T21:24:35.015Z,99347.81
2023-04-02T21:27:00.629Z,99350.39
2023-04-02T21:28:10.231Z,99353.75
2023-04-02T21:30:34.394Z,99348.31
2023-04-02T21:32:59.952Z,99350.66
2023-04-02T21:34:11.286Z,99350.09
2023-04-02T21:35:21.684Z,99352.41
2023-04-02T21:37:52.358Z,99349.75
2023-04-02T21:40:21.142Z,99339.95
2023-04-02T21:41:33.095Z,99354.34
2023-04-02T21:43:59.429Z,99339.55
2023-04-02T21:46:28.790Z,99344.78
2023-04-02T21:48:56.401Z,99338.58
2023-04-02T21:50:07.866Z,99347.93
2023-04-02T21:51:20.048Z,99341.81
2023-04-02T21:52:29.071Z,99343.44
2023-04-02T21:53:39.756Z,99340.76
2023-04-02T21:54:49.406Z,99345.39
2023-04-02T21:57:18.972Z,99338.00
2023-04-02T21:59:42.680Z,99335.50
2023-04-02T22:00:52.258Z,99340.98
2023-04-02T22:03:25.038Z,99337.55
2023-04-02T22:05:45.457Z,99341.43
2023-04-02T22:08:09.630Z,99339.36
2023-04-02T22:09:22.160Z,99340.69
2023-04-02T22:10:32.399Z,99338.62
2023-04-02T22:13:00.581Z,99334.16
2023-04-02T22:15:25.532Z,99328.64
2023-04-02T22:16:37.115Z,99341.70
2023-04-02T22:17:45.825Z,99332.12
2023-04-02T22:20:36.336Z,99333.52
2023-04-02T22:23:02.045Z,99342.46
2023-04-02T22:25:29.984Z,99330.08
2023-04-02T22:26:41.272Z,99344.27
2023-04-02T22:29:08.253Z,99336.35
2023-04-02T22:31:34.526Z,99332.12
2023-04-02T22:33:59.878Z,99335.84
2023-04-02T22:35:10.465Z,99335.67
2023-04-02T22:36:22.393Z,99344.83
2023-04-02T22:38:49.878Z,99335.19
2023-04-02T22:41:19.983Z,99329.20
2023-04-02T22:43:45.724Z,99329.11
2023-04-02T22:46:13.141Z,99324.02
2023-04-02T22:47:23.058Z,99325.55
2023-04-02T22:48:32.505Z,99326.67
2023-04-02T22:49:41.712Z,99336.39
2023-04-02T22:52:08.534Z,99321.58
2023-04-02T22:54:33.788Z,99324.11
2023-04-02T22:56:58.236Z,99311.24
2023-04-02T22:58:08.336Z,99329.31
2023-04-02T23:00:33.632Z,99325.07
2023-04-02T23:02:59.314Z,99320.07
2023-04-02T23:04:10.184Z,99319.31
2023-04-02T23:05:19.125Z,99322.99
2023-04-02T23:07:45.070Z,99313.92
2023-04-02T23:10:11.688Z,99319.30
2023-04-02T23:12:42.232Z,99313.29
2023-04-02T23:13:52.191Z,99314.37
2023-04-02T23:16:18.918Z,99313.41
2023-04-02T23:17:30.178Z,99322.27
2023-04-02T23:19:58.544Z,99315.01
2023-04-02T23:22:24.418Z,99315.13
2023-04-02T23:23:34.953Z,99316.45
2023-04-02T23:24:44.545Z,99311.22
2023-04-02T23:27:34.481Z,99313.22
2023-04-02T23:30:01.461Z,99308.20
2023-04-02T23:32:34.502Z,99308.33
2023-04-02T23:35:01.491Z,99311.09
2023-04-02T23:36:23.421Z,99307.87
2023-04-02T23:37:33.049Z,99314.45
2023-04-02T23:39:56.938Z,99311.79
2023-04-02T23:42:21.571Z,99304.71
2023-04-02T23:43:31.457Z,99310.44
2023-04-02T23:44:40.591Z,99314.02
2023-04-02T23:47:05.523Z,99307.47
2023-04-02T23:49:30.236Z,99310.34
2023-04-02T23:51:55.216Z,99304.91
2023-04-02T23:53:04.454Z,99303.78
2023-04-02T23:55:31.141Z,99303.66
2023-04-02T23:57:56.924Z,99292.33
